RKSS/GMP METAR and TAF weather

Enter ICAO airport designator
Station Type Date Time Source
RKSS METAR 2021/05/15 23:43 UTC NOAA

RKSS 152343Z 20008KT 3500 -RA BR SCT005 BKN020 OVC070 19/18 Q1001 NOSIG


Station Type Date Time Source
RKSS Decoded METAR 2021/05/15 23:43 UTC NOAA

Seoul / Kimp'O International Airport, Korea, South (RKSS) 37-33N 126-48E 18M
May 15, 2021 - 07:43 PM EDT / 2021.05.15 2343 UTC
Wind: from the SSW (200 degrees) at 9 MPH (8 KT):0
Visibility: 2 mile(s):0
Sky conditions: overcast
Weather: light rain; mist
Temperature: 66 F (19 C)
Dew Point: 64 F (18 C)
Relative Humidity: 93%
Pressure (altimeter): 29.56 in. Hg (1001 hPa)
ob: RKSS 152343Z 20008KT 3500 -RA BR SCT005 BKN020 OVC070 19/18 Q1001 NOSIG
cycle: 23

Station Type Date Time Source
RKSS TAF 2021/05/15 18:06 UTC NOAA

TAF RKSS 151700Z 1518/1624 08005KT 2000 -RA SCT006 BKN025 OVC070 TN19/1520Z TX23/1605Z TN14/1620Z
BECMG 1519/1520 RA
BECMG 1602/1603 04008KT 4000 -RA
BECMG 1605/1606 6000 NSW BKN035 OVC070
BECMG 1611/1612 01006KT -RA
BECMG 1614/1615 NSW

Example: see airport list